Time;durP1;ratioP1;P1;durP2;ratioP2;P2;SDS_P1;SDS_P2;PMS_P1;PMS_P2;Temp;Humidity;BMP_temperature;BMP_pressure;BME280_temperature;BME280_humidity;BME280_pressure;Samples;Min_cycle;Max_cycle;Signal;HPM_P1;HPM_P2
2022/01/08 00:00:37;;;;;;;5.07;3.20;;;9.90;80.70;;;;;;4995723;28;20022;-76
2022/01/08 00:03:03;;;;;;;4.00;2.53;;;9.80;80.60;;;;;;4995811;28;20033;-78
2022/01/08 00:05:28;;;;;;;4.18;2.53;;;9.80;80.70;;;;;;4995718;28;20101;-77
2022/01/08 00:07:54;;;;;;;4.88;2.70;;;9.80;80.80;;;;;;4995672;28;20068;-77
2022/01/08 00:10:21;;;;;;;5.20;2.85;;;9.80;80.60;;;;;;4995720;28;20400;-77
2022/01/08 00:12:49;;;;;;;4.40;2.50;;;9.80;80.80;;;;;;5012945;28;20056;-77
2022/01/08 00:15:15;;;;;;;5.22;2.90;;;9.80;80.90;;;;;;5013343;28;20014;-77
2022/01/08 00:17:40;;;;;;;5.10;2.60;;;9.90;81.00;;;;;;4995573;28;20400;-77
2022/01/08 00:20:06;;;;;;;4.57;2.58;;;9.80;81.00;;;;;;5013060;28;20029;-76
2022/01/08 00:22:32;;;;;;;4.88;2.40;;;9.80;80.90;;;;;;4995266;28;20033;-76
2022/01/08 00:24:57;;;;;;;4.80;2.70;;;9.90;81.10;;;;;;4995492;28;20030;-78
2022/01/08 00:27:23;;;;;;;5.18;3.20;;;9.80;81.00;;;;;;4995643;28;20637;-77
2022/01/08 00:29:49;;;;;;;5.65;3.13;;;9.80;81.00;;;;;;5013036;28;20025;-74
2022/01/08 00:32:16;;;;;;;5.85;3.53;;;9.80;81.00;;;;;;4994641;28;20022;-76
2022/01/08 00:34:42;;;;;;;6.03;3.58;;;9.80;81.00;;;;;;5012909;28;20096;-77
2022/01/08 00:37:07;;;;;;;5.97;3.22;;;9.80;81.00;;;;;;4995302;28;20121;-78
2022/01/08 00:39:34;;;;;;;6.03;3.60;;;9.80;81.00;;;;;;5012773;28;20109;-77
2022/01/08 00:41:59;;;;;;;5.85;3.45;;;9.80;81.00;;;;;;4994986;28;20036;-75
2022/01/08 00:44:25;;;;;;;6.38;3.63;;;9.80;81.10;;;;;;5012768;28;20104;-78
2022/01/08 00:46:51;;;;;;;5.97;3.50;;;9.80;81.10;;;;;;4995104;28;20025;-77
2022/01/08 00:49:17;;;;;;;5.38;3.30;;;9.80;81.10;;;;;;4995289;28;20510;-77
2022/01/08 00:51:42;;;;;;;5.55;3.22;;;9.80;81.10;;;;;;4994911;28;20556;-76
2022/01/08 00:54:08;;;;;;;5.90;3.30;;;9.80;81.10;;;;;;4994957;28;20397;-77
2022/01/08 00:56:34;;;;;;;5.72;3.47;;;9.90;81.10;;;;;;5012522;28;20058;-75
2022/01/08 00:58:59;;;;;;;6.20;3.90;;;9.80;81.10;;;;;;4995055;28;20026;-77
2022/01/08 01:01:25;;;;;;;5.50;3.20;;;9.80;81.10;;;;;;4994744;28;20026;-77
2022/01/08 01:03:51;;;;;;;5.80;3.17;;;9.80;81.10;;;;;;5012451;28;20037;-77
2022/01/08 01:06:16;;;;;;;6.40;3.50;;;9.80;81.10;;;;;;5012680;28;20026;-77
2022/01/08 01:08:42;;;;;;;6.22;3.90;;;9.90;81.30;;;;;;5012646;28;20514;-78
2022/01/08 01:11:08;;;;;;;6.53;4.07;;;9.80;81.10;;;;;;4994746;28;20026;-78
2022/01/08 01:13:33;;;;;;;6.20;3.67;;;9.80;81.10;;;;;;5012406;28;20022;-78
2022/01/08 01:16:01;;;;;;;6.75;3.75;;;9.90;81.20;;;;;;4995149;28;20032;-78
2022/01/08 01:18:26;;;;;;;7.35;4.20;;;9.80;81.10;;;;;;4994768;28;20124;-77
2022/01/08 01:20:52;;;;;;;6.88;3.75;;;9.80;81.20;;;;;;4994443;28;20560;-77
2022/01/08 01:23:28;;;;;;;6.43;3.88;;;9.90;81.20;;;;;;5012193;28;20481;-76
2022/01/08 01:25:59;;;;;;;6.15;3.95;;;9.90;81.30;;;;;;4995022;28;20038;-77
2022/01/08 01:47:10;;;;;;;5.88;3.75;;;9.80;81.30;;;;;;5016133;28;20127;-75
2022/01/08 01:49:47;;;;;;;6.70;4.00;;;9.80;81.40;;;;;;4998474;28;20089;-78
2022/01/08 01:52:15;;;;;;;6.47;4.28;;;9.80;81.40;;;;;;4998101;28;20397;-77
2022/01/08 01:54:41;;;;;;;6.70;4.30;;;9.80;81.40;;;;;;4998205;28;20045;-78
2022/01/08 01:57:09;;;;;;;6.88;4.55;;;9.80;81.40;;;;;;4998301;28;20029;-78
2022/01/08 01:59:35;;;;;;;6.60;4.70;;;9.80;81.40;;;;;;4998162;28;20026;-77
2022/01/08 02:02:02;;;;;;;6.47;4.35;;;9.90;81.50;;;;;;5015445;28;20097;-78
2022/01/08 02:04:27;;;;;;;6.70;4.32;;;9.90;81.50;;;;;;5015509;28;20092;-77
2022/01/08 02:06:53;;;;;;;7.45;4.97;;;9.80;81.40;;;;;;5015695;28;20073;-78
2022/01/08 02:09:19;;;;;;;6.53;4.30;;;9.80;81.40;;;;;;4997924;28;20683;-78
2022/01/08 02:12:04;;;;;;;6.28;4.22;;;9.90;81.50;;;;;;4998045;28;20022;-77
2022/01/08 02:14:33;;;;;;;6.93;4.55;;;9.90;81.60;;;;;;4998037;28;20026;-77
2022/01/08 02:16:59;;;;;;;6.72;4.40;;;9.80;81.60;;;;;;5015332;28;20061;-77
2022/01/08 02:19:26;;;;;;;7.82;5.22;;;9.80;81.50;;;;;;5015472;28;20057;-74
2022/01/08 02:21:54;;;;;;;7.35;4.95;;;9.80;81.50;;;;;;4997591;28;20033;-77
2022/01/08 02:24:20;;;;;;;7.13;4.68;;;9.90;81.60;;;;;;5015192;28;20036;-77
2022/01/08 02:26:46;;;;;;;7.47;4.82;;;9.80;81.60;;;;;;4997635;28;20026;-77
2022/01/08 02:29:16;;;;;;;6.93;4.60;;;9.80;81.60;;;;;;4998077;28;20414;-77
2022/01/08 02:32:04;;;;;;;7.70;4.88;;;9.80;81.60;;;;;;4997678;28;20029;-78
2022/01/08 02:34:30;;;;;;;7.00;4.53;;;9.80;81.60;;;;;;4997545;28;20427;-78
2022/01/08 02:36:58;;;;;;;7.43;5.00;;;9.80;81.60;;;;;;4997431;28;20029;-76
2022/01/08 02:39:24;;;;;;;7.45;4.90;;;9.80;81.70;;;;;;4997566;28;20026;-78
2022/01/08 02:41:54;;;;;;;6.72;4.80;;;9.80;81.70;;;;;;4997161;28;20128;-78
2022/01/08 02:44:22;;;;;;;7.28;5.03;;;9.80;81.70;;;;;;4997286;28;20109;-78
2022/01/08 02:46:47;;;;;;;8.68;5.25;;;9.80;81.70;;;;;;4997288;28;20378;-77
2022/01/08 02:49:13;;;;;;;7.50;4.70;;;9.80;81.70;;;;;;4997243;28;20116;-78
2022/01/08 02:51:38;;;;;;;8.07;4.80;;;9.80;81.70;;;;;;5014530;28;20481;-75
2022/01/08 02:54:08;;;;;;;7.70;5.25;;;9.80;81.70;;;;;;4997037;28;20029;-79
2022/01/08 02:56:38;;;;;;;7.68;5.30;;;9.80;81.70;;;;;;5014575;28;20022;-76
2022/01/08 02:59:04;;;;;;;7.63;5.10;;;9.80;81.70;;;;;;4997060;28;20032;-78
2022/01/08 03:01:29;;;;;;;7.03;4.90;;;9.90;81.80;;;;;;5014354;28;20026;-77
2022/01/08 03:03:56;;;;;;;7.55;5.15;;;9.80;81.70;;;;;;4996856;28;20346;-78
2022/01/08 03:06:22;;;;;;;7.20;4.95;;;9.80;81.70;;;;;;5014526;28;20022;-77
2022/01/08 03:08:48;;;;;;;8.13;5.13;;;9.80;81.80;;;;;;4997191;28;20026;-77
2022/01/08 03:11:13;;;;;;;9.20;5.95;;;9.90;81.80;;;;;;4996675;28;20133;-78
2022/01/08 03:16:15;;;;;;;8.07;5.43;;;9.80;81.70;;;;;;5018157;23;20058;-80
2022/01/08 03:18:40;;;;;;;7.60;5.32;;;9.90;81.80;;;;;;4977685;28;20033;-81
2022/01/08 03:21:15;;;;;;;8.00;5.60;;;9.80;81.80;;;;;;4977606;28;20396;-80
2022/01/08 03:23:51;;;;;;;8.10;5.95;;;9.90;81.80;;;;;;4977606;28;20025;-81
2022/01/08 03:26:19;;;;;;;7.85;5.40;;;9.80;81.80;;;;;;4958267;28;20564;-80
2022/01/08 03:28:45;;;;;;;8.15;5.50;;;9.80;81.80;;;;;;4957988;28;20027;-81
2022/01/08 03:31:12;;;;;;;9.00;5.88;;;9.80;81.80;;;;;;4957915;28;20027;-81
2022/01/08 03:33:38;;;;;;;8.27;6.00;;;9.80;81.90;;;;;;4958040;28;20471;-81
2022/01/08 03:36:04;;;;;;;7.93;5.50;;;9.80;81.90;;;;;;4957914;28;20027;-81
2022/01/08 03:38:30;;;;;;;7.82;5.60;;;9.80;82.00;;;;;;4958014;28;20590;-81
2022/01/08 03:40:56;;;;;;;8.85;5.93;;;9.90;82.00;;;;;;4957841;28;20646;-81
2022/01/08 03:43:22;;;;;;;9.43;6.38;;;9.80;81.90;;;;;;4957975;28;20146;-81
2022/01/08 03:45:47;;;;;;;8.35;5.93;;;9.80;81.90;;;;;;4955958;28;20169;-80
2022/01/08 03:51:15;;;;;;;8.15;5.95;;;9.80;82.00;;;;;;4953383;29;20038;-81
2022/01/08 03:53:42;;;;;;;8.60;6.38;;;9.80;82.00;;;;;;4953635;28;20031;-82
2022/01/08 03:56:08;;;;;;;9.18;5.93;;;9.80;82.00;;;;;;4957378;28;20058;-81
2022/01/08 03:58:34;;;;;;;8.75;6.45;;;9.80;82.00;;;;;;4957564;28;20544;-81
2022/01/08 04:01:00;;;;;;;8.88;6.28;;;9.80;82.00;;;;;;4957350;28;20406;-81
2022/01/08 04:03:26;;;;;;;9.20;6.20;;;9.80;82.10;;;;;;4957378;28;20038;-81
2022/01/08 04:05:52;;;;;;;8.23;5.80;;;9.80;82.10;;;;;;4957248;28;20532;-82
2022/01/08 04:08:18;;;;;;;8.68;6.50;;;9.80;82.10;;;;;;4956745;28;20026;-81
2022/01/08 04:10:44;;;;;;;9.70;6.40;;;9.80;82.10;;;;;;4974380;28;20522;-81
2022/01/08 04:13:17;;;;;;;9.15;6.70;;;9.80;82.10;;;;;;4957231;28;20023;-81
2022/01/08 04:15:45;;;;;;;8.38;6.10;;;9.80;82.10;;;;;;4974387;28;20105;-81
2022/01/08 04:18:11;;;;;;;8.30;6.35;;;9.80;82.10;;;;;;4957128;28;20027;-81
2022/01/08 04:20:50;;;;;;;9.93;6.25;;;9.80;82.20;;;;;;4957327;28;20031;-82
2022/01/08 04:23:20;;;;;;;9.15;6.72;;;9.80;82.20;;;;;;4957110;28;20018;-81
2022/01/08 04:25:46;;;;;;;8.73;6.18;;;9.80;82.20;;;;;;4957051;28;20054;-81
2022/01/08 04:28:12;;;;;;;10.00;6.40;;;9.80;82.20;;;;;;4974557;28;20075;-81
2022/01/08 04:30:38;;;;;;;9.82;6.25;;;9.80;82.20;;;;;;4956910;28;20028;-80
2022/01/08 04:33:03;;;;;;;8.82;6.45;;;9.80;82.20;;;;;;4956965;28;20074;-81
2022/01/08 04:35:29;;;;;;;8.98;6.45;;;9.80;82.30;;;;;;4973077;28;20023;-82
2022/01/08 04:37:54;;;;;;;9.15;6.07;;;9.80;82.30;;;;;;4956895;28;20118;-81
2022/01/08 04:40:20;;;;;;;9.27;6.95;;;9.80;82.20;;;;;;4956837;28;20031;-82
2022/01/08 04:42:45;;;;;;;8.60;6.35;;;9.80;82.30;;;;;;4973966;28;20043;-81
2022/01/08 04:45:11;;;;;;;10.35;6.97;;;9.80;82.30;;;;;;4956740;28;20027;-82
2022/01/08 04:47:37;;;;;;;9.00;7.00;;;9.80;82.30;;;;;;4974198;28;20023;-81
2022/01/08 04:50:02;;;;;;;9.55;6.45;;;9.80;82.30;;;;;;4974188;28;20063;-82
2022/01/08 04:52:28;;;;;;;9.60;7.28;;;9.80;82.30;;;;;;4978825;28;20374;-82
2022/01/08 04:54:54;;;;;;;9.15;6.82;;;9.80;82.30;;;;;;4957375;28;20026;-81
2022/01/08 04:57:19;;;;;;;8.55;6.25;;;9.80;82.30;;;;;;4958077;28;20031;-79
2022/01/08 04:59:45;;;;;;;9.00;6.32;;;9.80;82.40;;;;;;4957231;28;20117;-81
2022/01/08 05:02:10;;;;;;;9.23;6.95;;;9.80;82.40;;;;;;4973469;28;20073;-79
2022/01/08 05:04:36;;;;;;;9.68;6.60;;;9.80;82.30;;;;;;4973178;28;20054;-80
2022/01/08 05:07:01;;;;;;;8.95;6.72;;;9.80;82.30;;;;;;4957422;28;20069;-81
2022/01/08 05:09:27;;;;;;;10.98;6.93;;;9.80;82.40;;;;;;4957391;28;20481;-81
2022/01/08 05:11:52;;;;;;;8.50;6.30;;;9.80;82.40;;;;;;4971870;28;20027;-81
2022/01/08 05:14:18;;;;;;;10.32;7.70;;;9.80;82.40;;;;;;4955469;28;20081;-81
2022/01/08 05:16:45;;;;;;;9.77;6.40;;;9.80;82.20;;;;;;4956095;28;20030;-81
2022/01/08 05:19:11;;;;;;;9.13;6.63;;;9.80;82.10;;;;;;4955885;28;20023;-81
2022/01/08 05:21:38;;;;;;;9.98;6.88;;;9.80;82.00;;;;;;4956691;28;20074;-82
2022/01/08 05:24:04;;;;;;;9.38;6.72;;;9.80;82.10;;;;;;4971864;28;20470;-82
2022/01/08 05:26:30;;;;;;;9.10;6.82;;;9.80;82.10;;;;;;4955769;28;20042;-82
2022/01/08 05:28:56;;;;;;;8.63;6.57;;;9.90;82.10;;;;;;4955904;28;20019;-82
2022/01/08 05:31:23;;;;;;;8.90;6.80;;;9.90;82.00;;;;;;4956695;28;20039;-79
2022/01/08 05:33:50;;;;;;;8.75;6.75;;;9.90;82.00;;;;;;4956043;28;20023;-82
2022/01/08 05:36:15;;;;;;;9.27;6.82;;;9.90;81.90;;;;;;4956113;28;20033;-82
2022/01/08 05:38:41;;;;;;;9.00;6.63;;;9.90;81.80;;;;;;4956158;28;20400;-82
2022/01/08 05:41:07;;;;;;;9.55;7.13;;;10.00;81.80;;;;;;4973337;28;20034;-82
2022/01/08 05:43:33;;;;;;;9.65;6.78;;;10.00;81.80;;;;;;4955628;28;20027;-82
2022/01/08 05:45:59;;;;;;;9.88;7.18;;;10.00;81.80;;;;;;4955870;28;20026;-82
2022/01/08 05:48:26;;;;;;;9.18;6.45;;;10.00;81.80;;;;;;4951644;29;20564;-82
2022/01/08 05:50:51;;;;;;;8.88;6.43;;;10.00;81.80;;;;;;4956109;28;20440;-81
2022/01/08 05:53:18;;;;;;;9.18;6.80;;;10.00;81.80;;;;;;4956036;28;20022;-81
2022/01/08 05:55:44;;;;;;;10.95;7.47;;;10.00;81.70;;;;;;4955978;28;20027;-81
2022/01/08 05:58:10;;;;;;;9.43;7.28;;;10.00;81.80;;;;;;4956162;28;20078;-82
2022/01/08 06:00:35;;;;;;;9.27;6.95;;;10.00;81.80;;;;;;4959318;28;20021;-81
2022/01/08 06:03:01;;;;;;;10.15;7.70;;;10.00;81.70;;;;;;4991356;28;20053;-82
2022/01/08 06:05:27;;;;;;;8.77;6.75;;;10.00;81.70;;;;;;4991286;28;20023;-82
2022/01/08 06:07:52;;;;;;;8.80;6.63;;;10.00;81.70;;;;;;4991324;28;20508;-81
2022/01/08 06:10:18;;;;;;;9.95;7.05;;;10.00;81.60;;;;;;4992644;28;20389;-83
2022/01/08 06:12:45;;;;;;;10.10;7.28;;;10.00;81.70;;;;;;4991158;28;20018;-80
2022/01/08 06:15:11;;;;;;;11.00;7.68;;;10.00;81.70;;;;;;4974993;28;20030;-81
2022/01/08 06:17:36;;;;;;;8.98;6.93;;;10.00;81.60;;;;;;4991261;28;20026;-82
2022/01/08 06:20:03;;;;;;;9.70;7.30;;;10.00;81.60;;;;;;4991199;28;20058;-82
2022/01/08 06:22:28;;;;;;;9.98;7.22;;;10.00;81.70;;;;;;4974803;28;20023;-80
2022/01/08 06:24:54;;;;;;;9.25;7.20;;;9.90;81.70;;;;;;4992321;28;20096;-82
2022/01/08 06:27:19;;;;;;;10.68;7.63;;;9.90;81.70;;;;;;4992299;28;20547;-82
2022/01/08 06:29:45;;;;;;;9.93;6.90;;;9.90;81.90;;;;;;4991592;28;20022;-82
2022/01/08 06:32:11;;;;;;;9.88;7.43;;;9.90;82.00;;;;;;4994557;28;20065;-81
2022/01/08 06:34:37;;;;;;;11.00;7.38;;;9.90;82.10;;;;;;4994634;28;20018;-82
2022/01/08 06:37:03;;;;;;;9.55;7.30;;;9.80;82.10;;;;;;4995718;28;20057;-82
2022/01/08 06:39:28;;;;;;;9.93;7.32;;;9.80;82.20;;;;;;4994627;28;20057;-81
2022/01/08 06:41:54;;;;;;;9.70;7.30;;;9.80;82.20;;;;;;4993726;28;20547;-82
2022/01/08 06:44:19;;;;;;;11.25;7.80;;;9.80;82.20;;;;;;4994453;28;20555;-81
2022/01/08 06:46:45;;;;;;;11.20;7.30;;;9.80;82.40;;;;;;4994332;28;20081;-81
2022/01/08 06:49:12;;;;;;;10.20;7.63;;;9.80;82.30;;;;;;4994352;28;20489;-81
2022/01/08 06:51:38;;;;;;;11.32;7.65;;;9.80;82.40;;;;;;4994105;28;20499;-82
2022/01/08 06:54:04;;;;;;;10.80;7.55;;;9.80;82.40;;;;;;4994223;28;20030;-82
2022/01/08 06:56:29;;;;;;;10.45;7.88;;;9.80;82.30;;;;;;4994338;28;20113;-80
2022/01/08 06:58:55;;;;;;;11.18;8.02;;;9.80;82.30;;;;;;4994186;28;20030;-82
2022/01/08 07:01:21;;;;;;;10.45;8.00;;;9.80;82.40;;;;;;4994178;28;20022;-82
2022/01/08 07:03:47;;;;;;;10.75;7.75;;;9.80;82.30;;;;;;4993975;28;20506;-82
2022/01/08 07:06:12;;;;;;;9.65;7.32;;;9.80;82.50;;;;;;4993875;28;20026;-81
2022/01/08 07:08:38;;;;;;;10.05;7.60;;;9.80;82.50;;;;;;4995401;28;20073;-81
2022/01/08 07:11:03;;;;;;;10.55;7.50;;;9.80;82.60;;;;;;4993887;28;20050;-82
2022/01/08 07:13:29;;;;;;;10.80;7.93;;;9.80;82.60;;;;;;4993931;28;20022;-81
2022/01/08 07:15:54;;;;;;;10.52;7.45;;;9.70;82.50;;;;;;4993690;28;20026;-81
2022/01/08 07:18:20;;;;;;;11.10;7.85;;;9.80;82.50;;;;;;4995046;28;20022;-82
2022/01/08 07:20:46;;;;;;;10.50;7.95;;;9.80;82.50;;;;;;4994818;28;20030;-82
2022/01/08 07:23:11;;;;;;;11.48;8.27;;;9.80;82.40;;;;;;4995232;28;20052;-80
2022/01/08 07:25:37;;;;;;;10.40;7.90;;;9.80;82.50;;;;;;4993627;28;20018;-82
2022/01/08 07:28:02;;;;;;;10.77;7.88;;;9.70;82.50;;;;;;4994717;28;20026;-82
2022/01/08 07:30:28;;;;;;;10.68;7.80;;;9.70;82.60;;;;;;4994214;28;20026;-83
2022/01/08 07:32:54;;;;;;;10.82;8.02;;;9.80;82.40;;;;;;4993512;28;20161;-82
2022/01/08 07:35:22;;;;;;;10.20;7.78;;;9.80;82.50;;;;;;4993476;28;20026;-82
2022/01/08 07:37:50;;;;;;;10.57;7.50;;;9.80;82.50;;;;;;4977284;28;20507;-82
2022/01/08 07:40:15;;;;;;;11.98;7.90;;;9.80;82.40;;;;;;4977278;28;20031;-81
2022/01/08 07:42:41;;;;;;;10.55;7.72;;;9.70;82.50;;;;;;4993764;28;20033;-82
2022/01/08 07:45:08;;;;;;;11.02;8.55;;;9.80;82.50;;;;;;4993039;28;20508;-82
2022/01/08 07:47:34;;;;;;;9.95;7.68;;;9.80;82.60;;;;;;4994644;28;20031;-82
2022/01/08 07:50:00;;;;;;;10.43;7.80;;;9.80;82.70;;;;;;4993125;28;20093;-82
2022/01/08 07:52:25;;;;;;;10.60;8.23;;;9.80;82.70;;;;;;4976770;28;20481;-82
2022/01/08 07:54:51;;;;;;;10.15;8.05;;;9.80;82.70;;;;;;4993156;28;20027;-82
2022/01/08 07:57:16;;;;;;;10.55;8.50;;;9.80;83.10;;;;;;4994327;28;20072;-81
2022/01/08 07:59:42;;;;;;;11.68;8.63;;;9.80;82.50;;;;;;4976917;28;20026;-83
2022/01/08 08:02:09;;;;;;;11.70;8.18;;;9.80;82.60;;;;;;4992901;28;20034;-83
2022/01/08 08:04:34;;;;;;;10.95;8.35;;;9.80;82.60;;;;;;4976554;28;20033;-82
2022/01/08 08:07:00;;;;;;;11.10;8.38;;;9.80;82.60;;;;;;4994012;28;20389;-81
2022/01/08 08:09:25;;;;;;;11.20;8.38;;;9.80;82.80;;;;;;4994079;28;20030;-82
2022/01/08 08:11:51;;;;;;;10.23;7.85;;;9.70;82.80;;;;;;4976609;28;20018;-82
2022/01/08 08:14:16;;;;;;;11.45;8.55;;;9.70;82.60;;;;;;4992554;28;20037;-82
2022/01/08 08:16:42;;;;;;;11.18;8.15;;;9.80;83.20;;;;;;4992815;28;20054;-82
2022/01/08 08:19:07;;;;;;;10.98;8.40;;;9.80;82.80;;;;;;4992686;28;20117;-82
2022/01/08 08:21:33;;;;;;;11.05;8.05;;;9.80;82.80;;;;;;4992483;28;20498;-81
2022/01/08 08:24:00;;;;;;;9.82;7.50;;;9.70;82.80;;;;;;4992606;28;20435;-80
2022/01/08 08:26:26;;;;;;;10.88;8.10;;;9.70;82.80;;;;;;4976267;28;20037;-81
2022/01/08 08:28:51;;;;;;;10.73;7.90;;;9.70;82.80;;;;;;4992529;28;20477;-78
2022/01/08 08:31:17;;;;;;;11.05;8.20;;;9.70;82.80;;;;;;4992366;28;20026;-81
2022/01/08 08:33:42;;;;;;;10.80;7.80;;;9.70;82.80;;;;;;4992526;28;20032;-80
2022/01/08 08:36:08;;;;;;;11.00;8.05;;;9.80;82.80;;;;;;4992411;28;20019;-81
2022/01/08 08:38:33;;;;;;;10.85;7.88;;;9.80;82.90;;;;;;4992374;28;20031;-81
2022/01/08 08:40:59;;;;;;;10.73;8.48;;;9.70;82.80;;;;;;4976029;28;20026;-81
2022/01/08 08:43:24;;;;;;;11.02;8.15;;;9.70;82.80;;;;;;4992290;28;20018;-81
2022/01/08 08:45:50;;;;;;;12.10;8.75;;;9.70;82.80;;;;;;4992093;28;20077;-81
2022/01/08 08:48:16;;;;;;;10.77;7.82;;;9.70;82.80;;;;;;4992040;28;20030;-82
2022/01/08 08:50:43;;;;;;;10.13;7.32;;;9.70;82.80;;;;;;4975844;28;20030;-81
2022/01/08 08:53:09;;;;;;;10.63;8.05;;;9.70;82.80;;;;;;4975416;28;20026;-82
2022/01/08 08:55:34;;;;;;;11.13;8.40;;;9.70;82.90;;;;;;4975973;28;20026;-82
2022/01/08 08:58:00;;;;;;;11.70;8.68;;;9.80;82.80;;;;;;4992074;28;20022;-81
2022/01/08 09:00:26;;;;;;;10.93;7.93;;;9.70;82.80;;;;;;4992051;28;20038;-80
2022/01/08 09:02:51;;;;;;;11.48;8.32;;;9.80;82.90;;;;;;4993177;28;20033;-81
2022/01/08 09:05:17;;;;;;;10.85;8.23;;;9.70;82.90;;;;;;4991908;28;20030;-81
2022/01/08 09:07:43;;;;;;;10.98;7.88;;;9.80;83.00;;;;;;4993393;28;20062;-81
2022/01/08 09:10:09;;;;;;;10.88;8.32;;;9.70;82.90;;;;;;4992195;28;20029;-81
2022/01/08 09:12:36;;;;;;;12.23;8.48;;;9.70;83.50;;;;;;4992942;28;20510;-81
2022/01/08 09:15:02;;;;;;;11.60;8.60;;;9.70;82.90;;;;;;5035511;23;20045;-81
2022/01/08 09:17:28;;;;;;;10.48;8.07;;;9.70;83.00;;;;;;4995740;28;20464;-79
2022/01/08 09:19:54;;;;;;;10.95;8.38;;;9.70;82.90;;;;;;4978162;28;20034;-80
2022/01/08 09:22:20;;;;;;;11.57;8.38;;;9.70;83.50;;;;;;4995344;28;20034;-81
2022/01/08 09:24:46;;;;;;;11.00;8.25;;;9.70;82.90;;;;;;4977702;28;20030;-79
2022/01/08 09:27:12;;;;;;;10.10;7.95;;;9.70;83.00;;;;;;4977822;28;20495;-79
2022/01/08 09:29:38;;;;;;;11.60;8.50;;;9.70;83.00;;;;;;4977177;28;20030;-80
2022/01/08 09:32:05;;;;;;;11.50;8.35;;;9.70;82.90;;;;;;4995082;28;20389;-77
2022/01/08 09:34:30;;;;;;;11.18;8.80;;;9.70;82.90;;;;;;4994922;28;20402;-80
2022/01/08 09:36:58;;;;;;;10.68;8.13;;;9.70;83.00;;;;;;4996598;28;20034;-81
2022/01/08 09:39:24;;;;;;;11.40;8.30;;;9.70;83.00;;;;;;4981178;28;20030;-81
2022/01/08 09:41:50;;;;;;;11.13;8.00;;;9.70;83.00;;;;;;4980780;28;20035;-81
2022/01/08 09:44:15;;;;;;;12.02;8.25;;;9.70;83.00;;;;;;4982308;28;20482;-82
2022/01/08 09:46:41;;;;;;;11.70;9.18;;;9.70;83.00;;;;;;4981111;28;20076;-82
2022/01/08 09:49:07;;;;;;;10.80;8.35;;;9.70;83.00;;;;;;4998481;28;20019;-80
2022/01/08 09:51:32;;;;;;;11.48;8.38;;;9.70;83.00;;;;;;4996480;28;20053;-80
2022/01/08 09:53:59;;;;;;;10.98;8.02;;;9.70;83.00;;;;;;4980015;28;20038;-79
2022/01/08 09:56:26;;;;;;;11.48;8.45;;;9.70;83.00;;;;;;4979493;28;20053;-80
2022/01/08 09:58:52;;;;;;;12.27;8.60;;;9.70;83.10;;;;;;4979056;28;20026;-82
2022/01/08 10:01:33;;;;;;;13.02;8.80;;;9.70;83.10;;;;;;4978129;28;20026;-80
2022/01/08 10:04:00;;;;;;;10.98;8.30;;;9.70;83.10;;;;;;4978502;28;20112;-79
2022/01/08 10:06:27;;;;;;;12.20;8.40;;;9.70;83.10;;;;;;4980791;28;20027;-80
2022/01/08 10:08:53;;;;;;;11.32;8.45;;;9.70;83.00;;;;;;4999768;28;20105;-80
2022/01/08 10:11:21;;;;;;;12.02;8.98;;;9.70;83.00;;;;;;4981131;28;20061;-81
2022/01/08 10:13:51;;;;;;;11.85;8.70;;;9.80;83.10;;;;;;4981351;28;20030;-80
2022/01/08 10:19:15;;;;;;;11.60;8.27;;;9.70;83.00;;;;;;4998350;28;20084;-80
2022/01/08 10:21:43;;;;;;;11.23;8.50;;;9.70;83.00;;;;;;4980546;28;20026;-79
2022/01/08 10:24:10;;;;;;;11.38;8.75;;;9.70;83.00;;;;;;4998105;28;20457;-81
2022/01/08 10:26:39;;;;;;;11.00;8.30;;;9.80;83.10;;;;;;4980379;28;20027;-80
2022/01/08 10:29:09;;;;;;;12.30;9.00;;;9.70;83.10;;;;;;4980113;28;20023;-81
2022/01/08 10:31:44;;;;;;;11.15;8.30;;;9.70;83.00;;;;;;4979850;28;20026;-81
2022/01/08 10:34:11;;;;;;;13.40;9.25;;;9.70;83.00;;;;;;4997571;28;20034;-81
2022/01/08 10:36:38;;;;;;;14.68;9.80;;;9.70;82.90;;;;;;4979590;28;20026;-81
2022/01/08 10:39:20;;;;;;;14.45;10.00;;;9.70;82.90;;;;;;4979838;28;20022;-81
2022/01/08 10:41:48;;;;;;;14.65;9.90;;;9.70;83.00;;;;;;4979738;28;20030;-84
2022/01/08 10:44:16;;;;;;;14.13;10.02;;;9.70;83.00;;;;;;4980660;28;20029;-87
2022/01/08 10:47:03;;;;;;;15.70;10.52;;;9.70;82.90;;;;;;4980258;28;20401;-81
2022/01/08 10:49:37;;;;;;;13.95;9.05;;;9.70;83.00;;;;;;4997301;28;20022;-82
2022/01/08 10:52:12;;;;;;;14.35;9.82;;;9.70;82.90;;;;;;4996466;28;20109;-81
2022/01/08 10:54:40;;;;;;;15.65;9.80;;;9.70;83.00;;;;;;4979139;28;20018;-81
2022/01/08 10:57:08;;;;;;;14.35;10.27;;;9.70;82.90;;;;;;4978790;28;20076;-82
2022/01/08 10:59:35;;;;;;;16.20;10.18;;;9.70;82.90;;;;;;4978891;28;20026;-79
2022/01/08 11:02:09;;;;;;;13.35;9.90;;;9.70;82.90;;;;;;4978748;28;20107;-82
2022/01/08 11:04:49;;;;;;;13.32;9.77;;;9.70;82.90;;;;;;4978737;28;20038;-82
2022/01/08 11:07:23;;;;;;;15.02;9.77;;;9.70;83.00;;;;;;4996309;28;20057;-82
2022/01/08 11:09:54;;;;;;;15.93;10.48;;;9.70;83.00;;;;;;4978529;28;20023;-82
2022/01/08 11:12:29;;;;;;;13.43;10.15;;;9.70;83.00;;;;;;4995684;28;20026;-81
2022/01/08 11:15:12;;;;;;;13.60;10.07;;;9.70;83.10;;;;;;4995754;28;20019;-81
2022/01/08 11:17:40;;;;;;;13.48;10.07;;;9.70;83.50;;;;;;4978117;28;20034;-81
2022/01/08 11:20:09;;;;;;;14.85;10.70;;;9.70;83.10;;;;;;4978422;28;20409;-81
2022/01/08 11:22:38;;;;;;;13.43;9.98;;;9.70;83.00;;;;;;4995235;28;20022;-81
2022/01/08 11:25:21;;;;;;;13.60;9.98;;;9.70;83.00;;;;;;4995554;28;20109;-82
2022/01/08 11:28:07;;;;;;;14.65;10.02;;;9.70;83.10;;;;;;4995428;28;20121;-81
2022/01/08 11:30:36;;;;;;;14.02;10.27;;;9.70;83.10;;;;;;4995112;28;20023;-81
2022/01/08 11:33:08;;;;;;;14.68;10.40;;;9.70;83.10;;;;;;4977913;28;20028;-81
2022/01/08 11:35:36;;;;;;;13.15;10.20;;;9.70;83.10;;;;;;4995025;28;20042;-81
2022/01/08 11:38:07;;;;;;;15.68;10.70;;;9.70;83.20;;;;;;4977376;28;20548;-81
2022/01/08 11:40:38;;;;;;;12.85;9.85;;;9.70;83.10;;;;;;4980461;28;20026;-83
2022/01/08 11:43:07;;;;;;;14.48;10.57;;;9.70;83.10;;;;;;4980284;28;20030;-82
2022/01/08 11:45:54;;;;;;;14.25;10.13;;;9.70;83.10;;;;;;4979890;28;20018;-82
2022/01/08 11:48:28;;;;;;;14.68;10.73;;;9.70;83.20;;;;;;4997422;28;20034;-82
2022/01/08 11:50:56;;;;;;;16.35;10.88;;;9.70;83.20;;;;;;4997323;28;20453;-82
2022/01/08 11:53:33;;;;;;;14.48;10.63;;;9.70;83.20;;;;;;4980030;28;20130;-82
2022/01/08 11:56:05;;;;;;;14.93;10.38;;;9.70;83.20;;;;;;4979622;28;20018;-82
2022/01/08 11:58:33;;;;;;;14.18;10.55;;;9.70;83.30;;;;;;4997101;28;20018;-81
2022/01/08 12:01:03;;;;;;;14.48;10.27;;;9.70;83.20;;;;;;4978788;28;20023;-82
2022/01/08 12:03:32;;;;;;;14.38;10.48;;;9.70;83.30;;;;;;4979418;28;20026;-82
2022/01/08 12:06:25;;;;;;;14.88;10.80;;;9.70;83.20;;;;;;4979409;28;20026;-81
2022/01/08 12:11:46;;;;;;;14.10;10.27;;;9.70;83.20;;;;;;4996738;28;20481;-82
2022/01/08 12:14:13;;;;;;;15.88;10.45;;;9.70;83.20;;;;;;4996470;28;20031;-82
2022/01/08 12:16:41;;;;;;;15.65;10.63;;;9.70;83.20;;;;;;4978426;28;20026;-81
2022/01/08 12:19:09;;;;;;;14.93;10.95;;;9.70;83.20;;;;;;4978971;28;20092;-80
2022/01/08 12:21:39;;;;;;;14.65;11.52;;;9.70;83.20;;;;;;4977560;28;20540;-81
2022/01/08 12:24:28;;;;;;;14.48;10.57;;;9.70;83.30;;;;;;4995781;28;20113;-81
2022/01/08 12:26:54;;;;;;;14.35;10.65;;;9.70;83.30;;;;;;4979868;28;20429;-82
2022/01/08 12:29:37;;;;;;;14.35;10.60;;;9.70;83.30;;;;;;4977614;28;20030;-81
2022/01/08 12:32:35;;;;;;;14.98;11.65;;;9.70;83.30;;;;;;4977692;28;20053;-81
2022/01/08 12:35:26;;;;;;;18.70;12.65;;;9.70;83.30;;;;;;4977785;28;20430;-82
2022/01/08 12:37:55;;;;;;;22.48;14.40;;;9.70;81.10;;;;;;4978333;28;20580;-80
2022/01/08 12:40:38;;;;;;;29.40;15.98;;;9.50;77.60;;;;;;4995052;28;20030;-80
2022/01/08 12:43:28;;;;;;;22.10;15.32;;;9.50;77.20;;;;;;4996397;28;20026;-80
2022/01/08 12:46:10;;;;;;;25.65;15.32;;;9.40;77.40;;;;;;4977448;28;20029;-79
2022/01/08 12:48:35;;;;;;;22.70;15.10;;;9.40;77.60;;;;;;4977677;28;20088;-81
2022/01/08 12:51:05;;;;;;;21.45;14.55;;;9.40;77.60;;;;;;4995804;28;20026;-80
2022/01/08 12:53:32;;;;;;;22.13;15.10;;;9.40;77.80;;;;;;4994861;28;20118;-80
2022/01/08 12:55:58;;;;;;;24.20;14.63;;;9.40;78.10;;;;;;4977538;28;20054;-79
2022/01/08 12:58:27;;;;;;;25.17;14.30;;;9.40;78.00;;;;;;4977478;28;20037;-80
2022/01/08 13:00:59;;;;;;;24.90;15.10;;;9.40;78.10;;;;;;4977674;28;20023;-80
2022/01/08 13:03:28;;;;;;;21.55;14.13;;;9.40;78.10;;;;;;4978130;28;20022;-81
2022/01/08 13:05:54;;;;;;;21.45;14.32;;;9.40;78.10;;;;;;4980838;28;20469;-80
2022/01/08 13:08:25;;;;;;;21.42;14.40;;;9.40;78.00;;;;;;4996673;28;20065;-80
2022/01/08 13:11:00;;;;;;;19.23;13.80;;;9.40;78.00;;;;;;4979498;28;20030;-80
2022/01/08 13:13:26;;;;;;;17.98;12.75;;;9.40;77.60;;;;;;4996828;28;20019;-83
2022/01/08 13:15:53;;;;;;;19.13;13.20;;;9.40;77.70;;;;;;4996241;28;20109;-80
2022/01/08 13:18:24;;;;;;;22.60;13.30;;;9.40;77.60;;;;;;4977623;28;20034;-80
2022/01/08 13:21:01;;;;;;;20.65;12.98;;;9.50;77.60;;;;;;4996846;28;20057;-81
2022/01/08 13:23:26;;;;;;;18.67;12.70;;;9.40;77.50;;;;;;4980119;28;20029;-80